Aérodrome :







RETROUVEZ-NOUS SUR...

 
LOGIN :

S'inscrire | Disclaimer

   EN    FR    IT 

 









Légende :    VFR   VFR Marginal   IFR   IFR Intensif   IFR Très Intensif
Visi : 
Plafond : 
>= 8 km
>= 3000ft
5 à 8 km
1000 à 3000 ft
1500m à 5 km
500 à 1000 ft
800 à 1500m
200 à 500 ft
< 800m
< 200 ft
Symboles :   Orages  Brouillard  Fortes neiges  Fortes précipitations  Vent > 20 kt






- Altitude de l'aérodrome : 83 ft


KBHB - Hancock County-Bar Harbor

DERNIER METAR :
  • 100756Z AUTO 21017KT 3SM -RA BR OVC004 12/11 A2959 RMK AO2 PK WND 20031/0716 SLP023 P0001 T01170111

METARs EXPIRÉS :
  • 100656Z AUTO 21018G23KT 4SM -RA BR OVC004 11/11 A2959 RMK AO2 PK WND 20035/0609 SLP020 P0006 T01110106
  • 100556Z AUTO 21025G33KT 3SM RA BR OVC004 12/11 A2959 RMK AO2 PK WND 20034/0503 SLP020 P0014 60057 T01170111 10122 20106 56044
  • 100547Z AUTO 21024G31KT 3SM RA BR OVC004 11/11 A2959 RMK AO2 PK WND 20034/0503 P0012

TAF KBHB
Valide du 10 à 06h jusqu'au 11 à 06h UTC


100545Z 1006/1106 20022G32KT 4SM RA BR OVC005 WS020/21065KT
FM101000 22014G24KT 4SM -DZ BR OVC005 WS020/24045KT
FM102100 25010KT P6SM BKN009
FM102300 28011KT P6SM OVC040



MET'MAP, la Météo Aéronautique d'un coup d'oeil ! - Copyright ORBIFLY Décembre 2007 - Disclaimer

ORBIFLY MET'MAP TEAM :

Programmation & Développement : Alexandra Zaïnal
Sur une idée originale de : Baudouin d'Aumeries
Assistance à la programmation : Marc-Olivier Méhu
Soutien technique & logistique : Manuel Goepfert

Contact : metmap@orbifly.com




SOURCES & CREDITS :

   NOAA